createdAt,value
2019-02-06T00:02:25.522Z,-4.40
2019-02-06T00:07:19.107Z,-4.50
2019-02-06T00:12:11.811Z,-4.50
2019-02-06T00:17:02.190Z,-4.50
2019-02-06T00:26:46.977Z,-4.40
2019-02-06T00:31:38.416Z,-4.40
2019-02-06T00:36:29.764Z,-4.40
2019-02-06T00:41:23.355Z,-4.50
2019-02-06T00:46:14.749Z,-4.50
2019-02-06T00:51:06.200Z,-4.50
2019-02-06T00:55:58.164Z,-4.50
2019-02-06T01:00:49.008Z,-4.50
2019-02-06T01:05:40.388Z,-4.50
2019-02-06T01:15:25.361Z,-4.60
2019-02-06T01:20:16.782Z,-4.70
2019-02-06T01:25:08.092Z,-4.70
2019-02-06T01:29:59.542Z,-4.70
2019-02-06T01:34:50.914Z,-4.90
2019-02-06T01:39:44.658Z,-4.80
2019-02-06T01:44:35.914Z,-4.80
2019-02-06T01:49:27.330Z,-4.90
2019-02-06T01:54:18.693Z,-4.90
2019-02-06T01:59:10.175Z,-4.90
2019-02-06T02:04:01.486Z,-4.90
2019-02-06T02:08:52.887Z,-5.20
2019-02-06T02:13:44.312Z,-5.10
2019-02-06T02:18:35.650Z,-5.20
2019-02-06T02:23:28.031Z,-5.20
2019-02-06T02:28:18.512Z,-5.20
2019-02-06T02:33:09.825Z,-5.10
2019-02-06T02:38:01.277Z,-5.20
2019-02-06T02:42:52.621Z,-5.20
2019-02-06T02:47:46.215Z,-5.20
2019-02-06T02:52:39.933Z,-5.20
2019-02-06T02:57:31.361Z,-5.10
2019-02-06T03:02:22.780Z,-5.20
2019-02-06T03:07:14.098Z,-5.30
2019-02-06T03:12:05.593Z,-5.30
2019-02-06T03:16:56.902Z,-5.30
2019-02-06T03:21:48.323Z,-5.60
2019-02-06T03:26:40.804Z,-5.40
2019-02-06T03:31:31.192Z,-5.40
2019-02-06T03:36:22.429Z,-5.50
2019-02-06T03:41:16.082Z,-5.60
2019-02-06T03:46:07.509Z,-5.60
2019-02-06T03:51:01.111Z,-5.60
2019-02-06T03:55:52.591Z,-5.50
2019-02-06T04:00:43.940Z,-5.50
2019-02-06T04:05:35.377Z,-5.50
2019-02-06T04:10:27.805Z,-5.60
2019-02-06T04:15:18.239Z,-5.60
2019-02-06T04:20:09.488Z,-5.70
2019-02-06T04:25:01.049Z,-5.60
2019-02-06T04:29:54.531Z,-5.60
2019-02-06T04:34:45.940Z,-5.60
2019-02-06T04:39:39.648Z,-5.60
2019-02-06T04:44:31.088Z,-5.60
2019-02-06T04:49:22.422Z,-5.60
2019-02-06T04:54:14.156Z,-5.70
2019-02-06T04:59:05.219Z,-5.70
2019-02-06T05:03:58.847Z,-5.70
2019-02-06T05:08:50.233Z,-5.80
2019-02-06T05:18:33.004Z,-5.80
2019-02-06T05:23:24.346Z,-5.60
2019-02-06T05:28:19.035Z,-5.70
2019-02-06T05:33:07.251Z,-5.60
2019-02-06T05:37:59.312Z,-5.70
2019-02-06T05:42:53.560Z,-5.70
2019-02-06T05:47:41.360Z,-5.70
2019-02-06T05:52:32.761Z,-5.60
2019-02-06T05:57:24.102Z,-5.70
2019-02-06T06:02:17.697Z,-5.60
2019-02-06T06:07:09.175Z,-5.60
2019-02-06T06:12:02.716Z,-5.50
2019-02-06T06:16:54.210Z,-5.50
2019-02-06T06:21:45.576Z,-5.50
2019-02-06T06:26:37.014Z,-5.50
2019-02-06T06:31:28.355Z,-5.60
2019-02-06T06:36:19.729Z,-5.60
2019-02-06T06:41:13.394Z,-5.60
2019-02-06T06:46:05.392Z,-5.50
2019-02-06T06:50:56.159Z,-5.50
2019-02-06T06:55:47.536Z,-5.40
2019-02-06T07:00:38.909Z,-5.30
2019-02-06T07:05:32.846Z,-5.20
2019-02-06T07:10:26.274Z,-5.10
2019-02-06T07:15:22.201Z,-4.90
2019-02-06T07:20:15.939Z,-4.80
2019-02-06T07:25:08.301Z,-4.70
2019-02-06T07:30:00.951Z,-4.50
2019-02-06T07:34:52.386Z,-4.30
2019-02-06T07:39:43.738Z,-4.10
2019-02-06T07:44:35.142Z,-3.90
2019-02-06T07:49:26.589Z,-3.70
2019-02-06T07:54:17.962Z,-3.60
2019-02-06T07:59:09.381Z,-3.10
2019-02-06T08:04:00.704Z,-2.80
2019-02-06T08:08:54.656Z,-2.60
2019-02-06T08:13:45.762Z,-2.40
2019-02-06T08:18:37.144Z,-2.20
2019-02-06T08:23:28.500Z,-1.80
2019-02-06T08:28:19.933Z,-1.50
2019-02-06T08:33:13.576Z,-1.10
2019-02-06T08:38:04.970Z,-0.90
2019-02-06T08:42:56.349Z,-0.50
2019-02-06T08:47:47.771Z,-0.20
2019-02-06T08:52:40.048Z,0.00
2019-02-06T08:57:30.646Z,0.40
2019-02-06T09:02:21.995Z,0.70
2019-02-06T09:07:13.369Z,1.00
2019-02-06T09:12:06.998Z,1.30
2019-02-06T09:16:58.445Z,1.60
2019-02-06T09:21:49.844Z,2.00
2019-02-06T09:26:41.291Z,2.30
2019-02-06T09:31:32.639Z,2.70
2019-02-06T09:36:24.740Z,2.90
2019-02-06T09:41:15.438Z,3.30
2019-02-06T09:46:06.811Z,3.70
2019-02-06T09:50:58.137Z,4.10
2019-02-06T09:55:49.633Z,4.30
2019-02-06T10:00:41.132Z,4.50
2019-02-06T10:05:32.388Z,4.90
2019-02-06T10:10:23.738Z,5.30
2019-02-06T10:15:15.139Z,5.60
2019-02-06T10:20:07.623Z,5.80
2019-02-06T10:25:00.343Z,6.00
2019-02-06T10:29:53.909Z,6.30
2019-02-06T10:34:45.342Z,6.50
2019-02-06T10:39:36.775Z,6.60
2019-02-06T10:44:28.143Z,6.80
2019-02-06T10:49:19.491Z,6.80
2019-02-06T10:54:11.060Z,7.00
2019-02-06T10:59:02.458Z,7.20
2019-02-06T11:03:54.539Z,6.20
2019-02-06T11:08:45.270Z,7.20
2019-02-06T11:13:36.666Z,7.40
2019-02-06T11:18:28.042Z,7.40
2019-02-06T11:23:19.482Z,7.40
2019-02-06T11:28:10.840Z,7.50
2019-02-06T11:33:02.190Z,7.50
2019-02-06T11:37:53.645Z,7.60
2019-02-06T11:42:45.120Z,7.70
2019-02-06T11:47:37.192Z,7.60
2019-02-06T11:52:27.850Z,7.70
2019-02-06T11:57:19.250Z,7.90
2019-02-06T12:02:10.668Z,7.70
2019-02-06T12:11:53.450Z,7.40
2019-02-06T12:16:44.828Z,7.30
2019-02-06T12:21:36.284Z,7.30
2019-02-06T12:26:27.645Z,7.40
2019-02-06T12:31:19.047Z,7.40
2019-02-06T12:36:10.370Z,7.20
2019-02-06T12:41:01.937Z,7.20
2019-02-06T12:45:53.185Z,7.10
2019-02-06T12:50:44.623Z,7.10
2019-02-06T12:55:36.060Z,7.10
2019-02-06T13:00:28.352Z,7.00
2019-02-06T13:05:18.760Z,7.00
2019-02-06T13:10:10.203Z,7.20
2019-02-06T13:15:01.730Z,7.20
2019-02-06T13:19:53.952Z,7.40
2019-02-06T13:24:44.373Z,7.50
2019-02-06T13:29:35.763Z,7.50
2019-02-06T13:34:27.126Z,7.60
2019-02-06T13:39:18.591Z,7.50
2019-02-06T13:44:10.712Z,7.50
2019-02-06T13:49:01.300Z,7.60
2019-02-06T13:53:52.747Z,7.70
2019-02-06T13:58:44.113Z,7.80
2019-02-06T14:03:35.501Z,7.80
2019-02-06T14:08:26.945Z,7.80
2019-02-06T14:13:19.822Z,7.90
2019-02-06T14:18:11.874Z,7.80
2019-02-06T14:23:03.230Z,7.70
2019-02-06T14:27:54.643Z,7.80
2019-02-06T14:32:45.991Z,7.80
2019-02-06T14:37:37.454Z,7.90
2019-02-06T14:42:28.760Z,7.80
2019-02-06T14:47:20.613Z,7.80
2019-02-06T14:57:03.050Z,7.90
2019-02-06T15:01:56.638Z,7.50
2019-02-06T15:06:48.173Z,7.50
2019-02-06T15:11:39.666Z,7.50
2019-02-06T15:16:30.990Z,7.60
2019-02-06T15:21:22.409Z,7.50
2019-02-06T15:26:14.810Z,7.60
2019-02-06T15:31:05.163Z,7.60
2019-02-06T15:35:58.691Z,7.50
2019-02-06T15:40:48.095Z,7.30
2019-02-06T15:45:39.437Z,7.10
2019-02-06T15:50:30.823Z,6.80
2019-02-06T15:55:22.285Z,6.50
2019-02-06T16:00:14.636Z,6.30
2019-02-06T16:05:05.985Z,5.90
2019-02-06T16:09:57.425Z,5.60
2019-02-06T16:14:48.870Z,5.20
2019-02-06T16:19:40.300Z,4.90
2019-02-06T16:24:33.870Z,4.30
2019-02-06T16:29:25.347Z,4.30
2019-02-06T16:34:16.678Z,4.10
2019-02-06T16:39:08.109Z,3.40
2019-02-06T16:43:59.445Z,3.40
2019-02-06T16:48:51.872Z,3.10
2019-02-06T16:53:44.661Z,2.70
2019-02-06T16:58:36.129Z,2.40
2019-02-06T17:03:27.481Z,2.00
2019-02-06T17:08:19.828Z,1.80
2019-02-06T17:13:10.258Z,1.60
2019-02-06T17:18:01.661Z,1.30
2019-02-06T17:22:55.320Z,1.10
2019-02-06T17:27:47.711Z,0.90
2019-02-06T17:32:40.414Z,0.80
2019-02-06T17:37:31.870Z,0.70
2019-02-06T17:47:21.372Z,0.40
2019-02-06T17:52:12.886Z,0.10
2019-02-06T17:57:06.510Z,-0.10
2019-02-06T18:01:58.109Z,-0.10
2019-02-06T18:06:49.423Z,-0.20
2019-02-06T18:11:40.898Z,-0.30
2019-02-06T18:16:32.357Z,-0.30
2019-02-06T18:21:25.925Z,-0.30
2019-02-06T18:26:18.017Z,-0.40
2019-02-06T18:31:13.821Z,-0.60
2019-02-06T18:36:04.698Z,-0.70
2019-02-06T18:40:56.287Z,-0.80
2019-02-06T18:45:47.572Z,-1.00
2019-02-06T18:50:41.099Z,-1.00
2019-02-06T18:55:32.566Z,-1.00
2019-02-06T19:05:17.715Z,-0.90
2019-02-06T19:10:09.093Z,-1.00
2019-02-06T19:15:00.559Z,-1.20
2019-02-06T19:19:51.830Z,-1.40
2019-02-06T19:29:36.917Z,-1.50
2019-02-06T19:34:32.682Z,-1.40
2019-02-06T19:39:24.278Z,-1.30
2019-02-06T19:44:16.065Z,-1.30
2019-02-06T19:49:09.102Z,-1.30
2019-02-06T19:54:00.596Z,-1.40
2019-02-06T19:58:52.030Z,-1.50
2019-02-06T20:03:45.548Z,-1.70
2019-02-06T20:08:37.036Z,-1.80
2019-02-06T20:13:30.657Z,-1.90
2019-02-06T20:18:22.193Z,-2.10
2019-02-06T20:23:15.721Z,-2.30
2019-02-06T20:28:07.259Z,-2.20
2019-02-06T20:32:58.646Z,-2.20
2019-02-06T20:37:52.200Z,-2.20
2019-02-06T20:42:43.678Z,-2.20
2019-02-06T20:49:23.727Z,-2.10
2019-02-06T20:54:14.970Z,-2.20
2019-02-06T21:05:50.703Z,-2.20
2019-02-06T21:10:42.131Z,-2.40
2019-02-06T21:15:33.815Z,-2.60
2019-02-06T21:20:27.029Z,-2.70
2019-02-06T21:25:18.517Z,-2.80
2019-02-06T21:30:19.976Z,-2.70
2019-02-06T21:35:03.502Z,-2.70
2019-02-06T21:39:54.940Z,-2.80
2019-02-06T21:44:46.659Z,-3.00
2019-02-06T21:49:37.791Z,-2.90
2019-02-06T21:54:31.411Z,-3.00
2019-02-06T21:59:22.966Z,-2.90
2019-02-06T22:04:15.034Z,-3.00
2019-02-06T22:09:07.963Z,-3.10
2019-02-06T22:13:59.446Z,-3.20
2019-02-06T22:18:50.771Z,-3.20
2019-02-06T22:23:44.554Z,-3.30
2019-02-06T22:28:35.827Z,-3.30
2019-02-06T22:33:27.276Z,-3.40
2019-02-06T22:38:18.621Z,-3.30
2019-02-06T22:43:10.014Z,-3.40
2019-02-06T22:48:01.435Z,-3.50
2019-02-06T22:52:58.982Z,-3.40
2019-02-06T22:57:50.398Z,-3.50
2019-02-06T23:02:41.818Z,-3.30
2019-02-06T23:07:33.204Z,-3.50
2019-02-06T23:12:27.187Z,-3.70
2019-02-06T23:17:15.914Z,-3.60
2019-02-06T23:22:07.435Z,-3.60
2019-02-06T23:26:58.800Z,-3.70
2019-02-06T23:31:50.205Z,-3.60
2019-02-06T23:36:41.602Z,-3.60
2019-02-06T23:41:32.962Z,-3.60
2019-02-06T23:46:24.924Z,-3.70
2019-02-06T23:51:15.798Z,-3.70
2019-02-06T23:56:07.128Z,-3.60
